Time;durP1;ratioP1;P1;durP2;ratioP2;P2;SDS_P1;SDS_P2;PMS_P1;PMS_P2;Temp;Humidity;BMP_temperature;BMP_pressure;BME280_temperature;BME280_humidity;BME280_pressure;Samples;Min_cycle;Max_cycle;Signal;HPM_P1;HPM_P2
2023/04/26 00:01:41;;;;;;;12.43;5.43;;;;;;;10.02;77.82;97478.87;4455174;32;19987;-81
2023/04/26 00:04:08;;;;;;;;;;;;;;;10.01;78.40;97492.69;4455860;32;20480;-81
2023/04/26 00:06:36;;;;;;;14.77;5.53;;;;;;;10.15;76.66;97492.84;4455687;32;19996;-81
2023/04/26 00:09:03;;;;;;;11.40;4.97;;;;;;;10.37;74.55;97488.28;4455040;32;20107;-82
2023/04/26 00:11:30;;;;;;;11.88;4.93;;;;;;;9.77;77.77;97485.22;4455507;32;20526;-82
2023/04/26 00:13:58;;;;;;;12.00;4.90;;;;;;;9.88;76.83;97486.44;4455376;32;20085;-81
2023/04/26 00:16:25;;;;;;;11.68;4.97;;;;;;;9.79;76.39;97483.44;4455168;32;20099;-82
2023/04/26 00:18:53;;;;;;;12.65;4.95;;;;;;;9.31;78.48;97471.13;4455304;32;20130;-81
2023/04/26 00:21:20;;;;;;;11.75;4.87;;;;;;;9.34;78.32;97491.56;4455255;32;20081;-81
2023/04/26 00:23:47;;;;;;;10.10;4.05;;;;;;;10.00;75.46;97488.44;4454838;32;20089;-82
2023/04/26 00:26:14;;;;;;;13.57;5.50;;;;;;;9.70;75.99;97481.28;4455248;32;20430;-82
2023/04/26 00:28:41;;;;;;;11.80;4.68;;;;;;;9.65;75.78;97488.41;4455105;32;20093;-81
2023/04/26 00:31:15;;;;;;;11.10;4.97;;;;;;;9.15;77.96;97485.63;4454728;32;20443;-82
2023/04/26 00:33:43;;;;;;;11.77;5.10;;;;;;;9.27;76.81;97495.38;4455147;32;20455;-81
2023/04/26 00:36:10;;;;;;;12.60;4.90;;;;;;;9.36;77.07;97500.09;4455746;32;20096;-81
2023/04/26 00:38:36;;;;;;;11.32;5.20;;;;;;;9.57;75.06;97493.09;4457161;32;20143;-82
2023/04/26 00:41:04;;;;;;;;;;;;;;;9.19;76.18;97494.88;4457550;32;20424;-81
2023/04/26 00:43:31;;;;;;;11.48;5.07;;;;;;;9.67;73.65;97489.16;4456913;32;19985;-81
2023/04/26 00:45:57;;;;;;;;;;;;;;;9.18;75.94;97499.19;4457527;32;20112;-81
2023/04/26 00:48:25;;;;;;;10.88;4.32;;;;;;;9.54;74.57;97503.53;4457272;32;19987;-81
2023/04/26 00:50:52;;;;;;;9.52;4.00;;;;;;;9.59;73.27;97506.72;4456762;32;20085;-81
2023/04/26 00:53:19;;;;;;;10.77;4.35;;;;;;;9.67;73.28;97504.59;4457046;32;20428;-81
2023/04/26 00:55:46;;;;;;;11.43;5.05;;;;;;;9.04;75.85;97509.28;4457114;32;20107;-81
2023/04/26 00:58:13;;;;;;;13.60;5.28;;;;;;;9.01;76.12;97516.28;4456694;32;20515;-81
2023/04/26 01:00:40;;;;;;;;;;;;;;;8.77;76.84;97513.06;4457344;32;20068;-81
2023/04/26 01:03:07;;;;;;;9.90;4.12;;;;;;;8.83;76.27;97515.38;4456986;32;20029;-81
2023/04/26 01:05:35;;;;;;;10.93;4.50;;;;;;;9.55;72.46;97513.75;4442771;32;20119;-81
2023/04/26 01:08:03;;;;;;;11.20;4.82;;;;;;;9.10;75.32;97516.72;4456991;32;20085;-81
2023/04/26 01:10:34;;;;;;;11.25;4.70;;;;;;;9.20;75.02;97523.13;4443179;32;20506;-81
2023/04/26 01:13:04;;;;;;;14.07;4.53;;;;;;;9.47;72.42;97517.63;4442701;32;20097;-81
2023/04/26 01:15:32;;;;;;;12.10;4.47;;;;;;;9.50;71.66;97513.16;4456961;32;20153;-82
2023/04/26 01:17:59;;;;;;;12.80;4.45;;;;;;;9.77;70.32;97517.88;4456707;32;20197;-82
2023/04/26 01:20:26;;;;;;;10.02;4.47;;;;;;;9.73;70.40;97527.50;4456754;32;20144;-81
2023/04/26 01:22:53;;;;;;;11.95;5.32;;;;;;;9.37;72.93;97537.81;4456957;32;20146;-81
2023/04/26 01:25:20;;;;;;;12.50;4.85;;;;;;;9.45;72.06;97535.69;4456497;32;20112;-81
2023/04/26 01:27:47;;;;;;;11.73;4.70;;;;;;;9.04;73.81;97537.59;4442961;32;20444;-81
2023/04/26 01:30:13;;;;;;;;;;;;;;;8.98;74.23;97540.44;4457197;32;20452;-81
2023/04/26 01:32:40;;;;;;;13.07;4.95;;;;;;;8.92;74.11;97544.09;4456564;32;19973;-81
2023/04/26 01:35:08;;;;;;;11.57;4.55;;;;;;;9.63;70.76;97548.63;4456787;32;20089;-81
2023/04/26 01:37:35;;;;;;;13.00;4.68;;;;;;;9.05;73.30;97551.28;4456712;32;20393;-82
2023/04/26 01:40:05;;;;;;;11.65;4.97;;;;;;;9.22;72.43;97547.03;4456343;32;20081;-81
2023/04/26 01:42:32;;;;;;;14.55;4.95;;;;;;;9.31;72.14;97558.66;4456873;32;20115;-81
2023/04/26 01:44:59;;;;;;;11.50;4.62;;;;;;;9.18;72.87;97555.81;4456708;32;20116;-81
2023/04/26 01:47:26;;;;;;;12.48;5.03;;;;;;;9.23;72.34;97559.00;4456060;32;20164;-81
2023/04/26 01:49:53;;;;;;;13.52;5.35;;;;;;;8.64;75.09;97553.91;4456807;32;20119;-81
2023/04/26 01:52:21;;;;;;;13.45;4.45;;;;;;;8.70;75.36;97558.78;4456857;32;20129;-81
2023/04/26 01:54:48;;;;;;;11.73;4.40;;;;;;;8.80;74.86;97567.78;4456253;32;20515;-81
2023/04/26 01:57:15;;;;;;;12.57;5.32;;;;;;;9.12;72.56;97552.66;4456728;32;20138;-81
2023/04/26 01:59:42;;;;;;;11.82;4.57;;;;;;;9.37;71.72;97573.00;4456461;32;20073;-81
2023/04/26 02:02:09;;;;;;;10.93;4.30;;;;;;;9.29;71.79;97570.78;4456105;32;20096;-81
2023/04/26 02:04:36;;;;;;;10.57;4.18;;;;;;;8.61;73.67;97570.31;4456698;32;20564;-81
2023/04/26 02:07:03;;;;;;;13.38;4.68;;;;;;;8.22;76.63;97580.50;4456676;32;20080;-81
2023/04/26 02:09:30;;;;;;;;;;;;;;;8.78;73.69;97581.62;4456616;32;20069;-81
2023/04/26 02:11:56;;;;;;;12.35;4.53;;;;;;;8.97;72.15;97583.34;4456745;32;19980;-81
2023/04/26 02:14:23;;;;;;;;;;;;;;;8.99;73.12;97578.94;4456521;32;20092;-81
2023/04/26 02:16:50;;;;;;;13.25;4.82;;;;;;;8.97;72.57;97573.03;4456652;32;20299;-81
2023/04/26 02:19:17;;;;;;;11.45;4.37;;;;;;;8.57;73.74;97585.94;4456493;32;20414;-81
2023/04/26 02:21:55;;;;;;;13.68;5.62;;;;;;;9.00;72.12;97582.34;4456212;32;20085;-81
2023/04/26 02:24:22;;;;;;;8.43;3.67;;;;;;;8.24;76.42;97588.97;4456367;32;20093;-81
2023/04/26 02:26:50;;;;;;;11.43;4.30;;;;;;;8.16;76.36;97583.28;4456422;32;20089;-81
2023/04/26 02:29:18;;;;;;;14.00;4.75;;;;;;;8.08;77.43;97586.19;4456061;32;20081;-81
2023/04/26 02:31:52;;;;;;;11.23;4.78;;;;;;;8.70;74.37;97587.06;4456555;32;20089;-81
2023/04/26 02:34:19;;;;;;;10.48;4.25;;;;;;;8.44;75.97;97585.63;4456428;32;20153;-81
2023/04/26 02:36:47;;;;;;;12.07;5.10;;;;;;;8.24;76.05;97585.56;4456187;32;20103;-81
2023/04/26 02:39:14;;;;;;;13.38;4.60;;;;;;;8.50;75.43;97590.47;4456454;32;20077;-81
2023/04/26 02:41:41;;;;;;;11.93;4.47;;;;;;;8.35;74.93;97596.28;4456362;32;20097;-81
2023/04/26 02:44:08;;;;;;;;;;;;;;;8.44;75.90;97595.06;4456292;32;20505;-81
2023/04/26 02:46:34;;;;;;;10.20;4.10;;;;;;;9.49;70.52;97596.47;4456434;32;20022;-81
2023/04/26 02:49:02;;;;;;;12.23;4.60;;;;;;;8.98;72.19;97594.47;4456349;32;20104;-81
2023/04/26 02:51:28;;;;;;;13.32;4.30;;;;;;;9.03;72.06;97602.81;4455930;32;20092;-81
2023/04/26 02:53:55;;;;;;;11.60;4.22;;;;;;;8.37;74.83;97594.47;4456366;32;20093;-81
2023/04/26 02:56:22;;;;;;;12.15;4.28;;;;;;;8.65;73.30;97604.47;4456030;32;20115;-81
2023/04/26 02:58:50;;;;;;;12.37;4.78;;;;;;;8.09;75.37;97611.00;4455347;32;20150;-81
2023/04/26 03:01:17;;;;;;;15.05;4.45;;;;;;;8.95;71.87;97610.03;4456175;32;20463;-81
2023/04/26 03:03:44;;;;;;;15.48;4.93;;;;;;;9.19;70.08;97614.09;4455689;32;20115;-81
2023/04/26 03:06:11;;;;;;;11.40;4.07;;;;;;;8.96;71.57;97620.25;4456267;32;20104;-81
2023/04/26 03:08:38;;;;;;;;;;;;;;;8.33;74.43;97618.59;4456560;32;20145;-81
2023/04/26 03:11:05;;;;;;;10.02;4.10;;;;;;;8.94;71.56;97627.22;4455958;32;19964;-81
2023/04/26 03:13:32;;;;;;;15.32;5.12;;;;;;;8.82;71.80;97630.28;4456045;32;20096;-81
2023/04/26 03:15:59;;;;;;;11.80;4.68;;;;;;;8.88;71.37;97629.19;4456058;32;20153;-81
2023/04/26 03:18:26;;;;;;;12.00;5.00;;;;;;;8.43;73.99;97624.25;4455719;32;20138;-81
2023/04/26 03:20:53;;;;;;;13.05;4.78;;;;;;;8.32;73.87;97624.66;4456073;32;20128;-81
2023/04/26 03:23:23;;;;;;;;;;;;;;;8.59;72.67;97628.69;4456392;32;20085;-81
2023/04/26 03:25:50;;;;;;;11.90;5.00;;;;;;;8.05;76.00;97636.84;4455869;32;19981;-81
2023/04/26 03:28:17;;;;;;;12.40;5.00;;;;;;;8.44;73.52;97638.78;4456000;32;20096;-81
2023/04/26 03:30:44;;;;;;;10.20;4.18;;;;;;;9.10;69.54;97634.25;4455977;32;20089;-81
2023/04/26 03:33:12;;;;;;;12.32;4.75;;;;;;;8.76;70.40;97635.72;4455454;32;20107;-81
2023/04/26 03:35:39;;;;;;;14.00;4.90;;;;;;;8.30;73.31;97631.59;4455927;32;20100;-81
2023/04/26 03:38:06;;;;;;;14.23;5.05;;;;;;;8.96;70.80;97637.44;4455964;32;20077;-81
2023/04/26 03:40:33;;;;;;;12.80;4.55;;;;;;;9.25;68.74;97636.16;4455437;32;20101;-81
2023/04/26 03:43:00;;;;;;;11.12;4.03;;;;;;;9.19;68.81;97644.16;4455963;32;20089;-81
2023/04/26 03:45:27;;;;;;;14.43;4.90;;;;;;;8.75;70.90;97643.50;4455402;32;20194;-81
2023/04/26 03:47:55;;;;;;;10.65;4.32;;;;;;;8.88;69.87;97642.91;4455864;32;20155;-81
2023/04/26 03:50:22;;;;;;;12.07;4.78;;;;;;;8.47;72.34;97651.50;4455872;32;20108;-81
2023/04/26 03:52:49;;;;;;;;;;;;;;;8.32;72.73;97663.22;4455736;32;20135;-81
2023/04/26 03:55:16;;;;;;;11.57;4.62;;;;;;;8.66;71.30;97657.56;4455766;32;20624;-82
2023/04/26 03:57:43;;;;;;;14.45;4.57;;;;;;;8.52;71.94;97657.31;4455720;32;20496;-81
2023/04/26 04:00:13;;;;;;;;;;;;;;;9.09;69.86;97666.06;4455621;32;20367;-81
2023/04/26 04:02:40;;;;;;;11.98;4.62;;;;;;;8.64;71.15;97665.34;4455505;32;20026;-81
2023/04/26 04:05:08;;;;;;;12.80;4.57;;;;;;;8.56;71.03;97669.97;4455398;32;20085;-81
2023/04/26 04:07:35;;;;;;;12.02;4.57;;;;;;;9.62;67.00;97681.72;4455193;32;20069;-82
2023/04/26 04:10:02;;;;;;;11.02;4.15;;;;;;;9.62;65.99;97676.56;4456345;32;20097;-81
2023/04/26 04:12:29;;;;;;;14.87;4.78;;;;;;;10.00;64.35;97677.44;4457486;32;20440;-81
2023/04/26 04:14:56;;;;;;;14.52;5.22;;;;;;;9.79;65.39;97680.97;4456958;32;20101;-81
2023/04/26 04:17:23;;;;;;;11.60;4.12;;;;;;;10.16;63.51;97677.53;4457596;32;20099;-81
2023/04/26 04:19:50;;;;;;;13.25;5.28;;;;;;;9.96;63.46;97680.19;4457278;32;20414;-81
2023/04/26 04:22:17;;;;;;;11.85;4.12;;;;;;;10.37;61.74;97679.13;4456959;32;20081;-81
2023/04/26 04:24:44;;;;;;;;;;;;;;;9.88;63.47;97684.84;4457625;32;20093;-81
2023/04/26 04:27:11;;;;;;;9.77;4.00;;;;;;;8.96;68.99;97683.75;4457457;32;19996;-81
2023/04/26 04:29:39;;;;;;;14.38;4.85;;;;;;;9.03;67.42;97685.16;4456720;32;20132;-81
2023/04/26 04:32:06;;;;;;;13.43;4.85;;;;;;;9.43;66.85;97684.28;4457409;32;20146;-81
2023/04/26 04:34:35;;;;;;;16.55;5.05;;;;;;;9.49;66.63;97693.50;4456909;32;20150;-81
2023/04/26 04:37:03;;;;;;;15.93;4.72;;;;;;;9.65;66.41;97691.06;4457217;32;20081;-81
2023/04/26 04:39:30;;;;;;;12.20;4.45;;;;;;;9.88;64.64;97690.00;4457281;32;20133;-81
2023/04/26 04:41:57;;;;;;;12.13;4.80;;;;;;;10.00;63.93;97700.63;4456844;32;20739;-82
2023/04/26 04:44:25;;;;;;;12.40;4.93;;;;;;;10.32;63.44;97698.31;4457123;32;20088;-81
2023/04/26 04:46:52;;;;;;;11.85;4.47;;;;;;;10.68;61.88;97708.63;4457212;32;20085;-81
2023/04/26 04:49:19;;;;;;;12.20;4.80;;;;;;;10.30;62.77;97707.84;4456770;32;20093;-81
2023/04/26 04:51:46;;;;;;;12.75;4.55;;;;;;;10.01;64.94;97712.59;4457238;32;20097;-81
2023/04/26 04:54:15;;;;;;;14.23;4.78;;;;;;;10.55;62.29;97715.28;4456936;32;20409;-82
2023/04/26 04:56:43;;;;;;;13.25;4.78;;;;;;;10.81;61.12;97716.59;4456674;32;20076;-82
2023/04/26 04:59:10;;;;;;;12.52;4.28;;;;;;;10.17;63.27;97720.44;4457159;32;20085;-82
2023/04/26 05:01:37;;;;;;;11.73;4.80;;;;;;;10.76;59.80;97722.00;4456901;32;20158;-82
2023/04/26 05:04:05;;;;;;;10.95;4.43;;;;;;;11.93;56.71;97728.09;4456465;32;20444;-81
2023/04/26 05:06:32;;;;;;;10.50;4.10;;;;;;;12.62;53.96;97719.97;4457008;32;20104;-81
2023/04/26 05:09:00;;;;;;;11.48;4.40;;;;;;;12.43;52.72;97727.91;4456968;32;20497;-81
2023/04/26 05:11:27;;;;;;;11.85;4.28;;;;;;;12.71;52.29;97726.41;4456738;32;20094;-82
2023/04/26 05:13:54;;;;;;;11.02;3.97;;;;;;;13.35;51.27;97730.50;4456896;32;20157;-81
2023/04/26 05:16:21;;;;;;;11.52;4.10;;;;;;;13.89;48.55;97741.06;4456955;32;20076;-81
2023/04/26 05:18:48;;;;;;;9.13;3.85;;;;;;;13.68;48.96;97730.22;4456456;32;20111;-81
2023/04/26 05:21:15;;;;;;;8.55;3.78;;;;;;;13.67;48.79;97741.53;4456292;32;20097;-81
2023/04/26 05:23:42;;;;;;;11.43;4.03;;;;;;;13.12;50.58;97734.41;4456546;32;20085;-81
2023/04/26 05:26:14;;;;;;;12.02;4.55;;;;;;;12.66;51.40;97731.84;4456915;32;20089;-81
2023/04/26 05:28:41;;;;;;;12.35;4.30;;;;;;;13.44;49.25;97722.19;4456877;32;20116;-81
2023/04/26 05:31:08;;;;;;;11.38;4.05;;;;;;;13.37;49.58;97723.44;4456542;32;20550;-82
2023/04/26 05:33:37;;;;;;;14.30;4.25;;;;;;;14.21;47.69;97722.69;4456700;32;20081;-81
2023/04/26 05:36:04;;;;;;;14.57;4.55;;;;;;;15.14;44.92;97722.72;4456825;32;20435;-81
2023/04/26 05:38:31;;;;;;;11.63;4.28;;;;;;;14.79;45.73;97726.81;4456420;32;20146;-81
2023/04/26 05:40:58;;;;;;;10.25;3.55;;;;;;;14.47;46.15;97740.09;4456753;32;20432;-81
2023/04/26 05:43:25;;;;;;;11.35;4.12;;;;;;;14.77;45.54;97740.72;4456637;32;20182;-81
2023/04/26 05:45:53;;;;;;;14.05;3.95;;;;;;;14.06;46.83;97738.28;4456239;32;20107;-81
2023/04/26 05:48:21;;;;;;;10.93;3.80;;;;;;;14.26;45.06;97734.47;4456755;32;20093;-81
2023/04/26 05:50:49;;;;;;;13.95;4.32;;;;;;;13.68;47.40;97740.59;4456746;32;20094;-81
2023/04/26 05:53:17;;;;;;;14.45;5.03;;;;;;;13.97;46.79;97741.44;4456296;32;20150;-81
2023/04/26 05:55:44;;;;;;;10.65;3.62;;;;;;;13.82;47.23;97751.00;4456429;32;20103;-81
2023/04/26 05:58:11;;;;;;;11.77;3.92;;;;;;;14.77;45.31;97751.09;4456498;32;20105;-81
2023/04/26 06:00:38;;;;;;;12.93;4.05;;;;;;;14.39;44.28;97752.69;4456352;32;20150;-81
2023/04/26 06:03:05;;;;;;;10.65;3.83;;;;;;;13.36;47.20;97765.00;4456331;32;20093;-81
2023/04/26 06:05:33;;;;;;;11.32;3.95;;;;;;;13.79;46.29;97765.88;4456463;32;20419;-82
2023/04/26 06:08:00;;;;;;;10.68;3.45;;;;;;;13.48;47.57;97772.88;4455860;32;20132;-81
2023/04/26 06:10:27;;;;;;;13.88;4.05;;;;;;;13.62;47.15;97760.91;4456557;32;20146;-81
2023/04/26 06:12:55;;;;;;;9.95;3.70;;;;;;;13.48;46.76;97777.25;4456295;32;20130;-81
2023/04/26 06:15:22;;;;;;;10.20;3.70;;;;;;;12.70;47.81;97784.25;4456288;32;20084;-79
2023/04/26 06:17:48;;;;;;;11.18;3.15;;;;;;;13.10;47.84;97782.03;4456376;32;20115;-83
2023/04/26 06:20:15;;;;;;;13.73;3.92;;;;;;;12.87;47.67;97783.34;4456012;32;20098;-82
2023/04/26 06:22:42;;;;;;;12.18;4.43;;;;;;;13.07;48.15;97797.72;4456460;32;20086;-80
2023/04/26 06:25:09;;;;;;;12.63;4.35;;;;;;;12.99;47.37;97803.38;4456344;32;20104;-81
2023/04/26 06:27:38;;;;;;;11.15;3.55;;;;;;;12.88;46.97;97795.38;4455673;32;20114;-82
2023/04/26 06:30:06;;;;;;;13.48;4.00;;;;;;;12.40;48.37;97805.72;4442270;32;20109;-82
2023/04/26 06:32:33;;;;;;;10.98;4.20;;;;;;;13.29;46.23;97795.59;4455264;32;20445;-82
2023/04/26 06:35:00;;;;;;;11.20;3.97;;;;;;;13.59;44.96;97796.41;4455287;32;20495;-81
2023/04/26 06:37:27;;;;;;;10.48;3.20;;;;;;;13.92;46.17;97807.47;4456215;32;20089;-81
2023/04/26 06:39:54;;;;;;;9.48;3.42;;;;;;;12.92;44.06;97810.62;4456266;32;20101;-81
2023/04/26 06:42:21;;;;;;;9.82;3.55;;;;;;;12.28;44.28;97801.22;4455938;32;20098;-82
2023/04/26 06:44:48;;;;;;;11.93;3.40;;;;;;;12.77;45.10;97806.31;4456225;32;20158;-81
2023/04/26 06:47:15;;;;;;;8.13;2.80;;;;;;;13.27;44.29;97802.66;4456202;32;20109;-82
2023/04/26 06:49:42;;;;;;;9.90;3.10;;;;;;;12.02;44.88;97806.94;4455905;32;20117;-82
2023/04/26 06:52:09;;;;;;;9.88;2.78;;;;;;;12.13;44.73;97802.03;4456320;32;20432;-82
2023/04/26 06:54:36;;;;;;;8.50;2.85;;;;;;;12.37;43.97;97813.66;4456107;32;20603;-81
2023/04/26 06:57:15;;;;;;;10.70;3.17;;;;;;;12.11;44.92;97809.00;4456140;32;20146;-80
2023/04/26 06:59:42;;;;;;;;;;;;;;;11.96;44.17;97817.59;4456456;32;20085;-81
2023/04/26 07:02:09;;;;;;;9.77;2.67;;;;;;;12.21;44.86;97820.53;4455683;32;20015;-82
2023/04/26 07:04:36;;;;;;;11.63;2.92;;;;;;;12.77;42.51;97819.25;4456215;32;20077;-82
2023/04/26 07:07:03;;;;;;;11.38;2.95;;;;;;;13.52;39.48;97815.88;4456141;32;20092;-82
2023/04/26 07:09:30;;;;;;;8.30;2.37;;;;;;;12.68;40.39;97820.59;4455688;32;20112;-82
2023/04/26 07:11:57;;;;;;;6.50;2.37;;;;;;;13.27;39.22;97813.00;4456196;32;20142;-82
2023/04/26 07:14:24;;;;;;;6.53;2.50;;;;;;;14.03;38.06;97813.69;4455914;32;20076;-82
2023/04/26 07:16:51;;;;;;;9.77;2.10;;;;;;;13.80;39.32;97825.44;4455663;32;20111;-82
2023/04/26 07:19:18;;;;;;;9.30;2.00;;;;;;;13.63;37.71;97812.66;4455908;32;20108;-83
2023/04/26 07:21:45;;;;;;;5.80;1.80;;;;;;;12.73;39.96;97830.69;4455909;32;20077;-82
2023/04/26 07:24:12;;;;;;;5.60;1.85;;;;;;;12.54;38.42;97820.50;4455563;32;20141;-82
2023/04/26 07:26:40;;;;;;;4.80;1.85;;;;;;;13.32;38.30;97829.97;4456582;32;20226;-81
2023/04/26 07:29:07;;;;;;;5.28;2.28;;;;;;;13.67;37.01;97834.03;4456915;32;20105;-82
2023/04/26 07:31:34;;;;;;;8.38;2.20;;;;;;;13.08;40.07;97836.53;4456189;32;20448;-82
2023/04/26 07:34:01;;;;;;;6.37;2.30;;;;;;;13.25;36.92;97833.00;4442123;32;20086;-83
2023/04/26 07:36:28;;;;;;;8.13;2.50;;;;;;;13.69;37.79;97834.78;4456335;32;20428;-84
2023/04/26 07:38:56;;;;;;;6.30;2.12;;;;;;;13.56;39.66;97835.50;4455689;32;20170;-84
2023/04/26 07:41:23;;;;;;;5.62;1.70;;;;;;;15.28;34.94;97839.59;4456008;32;20131;-86
2023/04/26 07:43:50;;;;;;;4.43;1.70;;;;;;;14.61;33.82;97830.09;4455135;32;20485;-85
2023/04/26 07:46:17;;;;;;;4.70;1.80;;;;;;;14.53;33.77;97840.09;4456879;32;20119;-85
2023/04/26 07:48:44;;;;;;;5.60;1.83;;;;;;;14.41;34.41;97836.47;4456968;32;20097;-85
2023/04/26 07:51:12;;;;;;;6.00;2.08;;;;;;;15.11;33.82;97845.06;4455896;32;20100;-83
2023/04/26 07:53:40;;;;;;;5.50;1.80;;;;;;;13.61;35.11;97843.03;4441808;32;20089;-83
2023/04/26 07:56:07;;;;;;;6.60;2.50;;;;;;;13.68;33.61;97833.94;4455493;32;20141;-82
2023/04/26 07:58:35;;;;;;;8.32;2.08;;;;;;;13.84;35.60;97844.25;4441278;32;20139;-83
2023/04/26 08:01:03;;;;;;;2.95;1.50;;;;;;;13.27;36.01;97844.94;4456098;32;20117;-84
2023/04/26 08:03:30;;;;;;;5.57;2.08;;;;;;;14.71;33.91;97846.75;4442006;32;20093;-84
2023/04/26 08:06:00;;;;;;;5.72;2.00;;;;;;;14.52;35.32;97841.88;4455199;32;20089;-84
2023/04/26 08:08:28;;;;;;;4.22;1.60;;;;;;;13.74;36.07;97851.75;4455614;32;20482;-84
2023/04/26 08:10:55;;;;;;;3.78;1.50;;;;;;;12.83;35.28;97849.97;4455784;32;20076;-83
2023/04/26 08:13:22;;;;;;;3.90;1.42;;;;;;;13.11;35.96;97858.81;4454938;32;20085;-84
2023/04/26 08:15:49;;;;;;;4.90;1.55;;;;;;;12.44;37.04;97843.47;4455196;32;20154;-85
2023/04/26 08:18:16;;;;;;;6.07;1.62;;;;;;;12.81;36.66;97807.81;4455252;32;20435;-85
2023/04/26 08:20:43;;;;;;;6.05;1.67;;;;;;;13.53;35.27;97846.03;4454993;32;20090;-84
2023/04/26 08:23:10;;;;;;;3.05;1.25;;;;;;;13.18;35.46;97849.75;4455438;32;20150;-84
2023/04/26 08:25:37;;;;;;;6.55;1.80;;;;;;;12.69;37.14;97837.78;4455167;32;20093;-84
2023/04/26 08:28:04;;;;;;;5.35;2.05;;;;;;;12.84;35.54;97853.41;4454832;32;20100;-84
2023/04/26 08:30:31;;;;;;;5.22;1.80;;;;;;;13.23;35.95;97864.16;4455277;32;20097;-84
2023/04/26 08:32:58;;;;;;;7.40;1.73;;;;;;;13.26;37.82;97860.56;4455077;32;20112;-84
2023/04/26 08:35:25;;;;;;;8.40;2.30;;;;;;;13.34;34.26;97848.03;4454977;32;20085;-84
2023/04/26 08:37:52;;;;;;;5.57;1.42;;;;;;;13.27;34.31;97864.81;4455144;32;20108;-83
2023/04/26 08:40:23;;;;;;;8.25;1.80;;;;;;;14.08;33.45;97858.34;4454719;32;20093;-83
2023/04/26 08:42:52;;;;;;;5.30;2.00;;;;;;;14.64;31.89;97872.25;4455193;32;20109;-82
2023/04/26 08:45:20;;;;;;;3.78;1.62;;;;;;;15.42;32.33;97882.94;4455561;32;20109;-84
2023/04/26 08:47:49;;;;;;;6.35;1.80;;;;;;;15.90;30.84;97868.47;4440587;32;20456;-84
2023/04/26 08:50:19;;;;;;;6.95;1.70;;;;;;;16.02;32.04;97881.59;4454827;32;20105;-83
2023/04/26 08:52:49;;;;;;;5.68;1.95;;;;;;;15.02;31.85;97871.66;4454868;32;20572;-83
2023/04/26 08:55:17;;;;;;;3.95;1.55;;;;;;;14.31;31.58;97871.69;4454305;32;20104;-83
2023/04/26 08:57:48;;;;;;;3.75;1.73;;;;;;;15.05;33.17;97882.66;4456211;32;20101;-84
2023/04/26 09:00:17;;;;;;;5.07;1.80;;;;;;;15.37;30.62;97879.78;4456892;32;20085;-84
2023/04/26 09:02:48;;;;;;;7.15;1.92;;;;;;;15.38;31.32;97873.63;4442373;32;20080;-83
2023/04/26 09:05:16;;;;;;;5.95;1.87;;;;;;;15.10;31.90;97882.37;4456852;32;20097;-83
2023/04/26 09:07:46;;;;;;;6.85;1.87;;;;;;;15.13;31.30;97870.97;4456836;32;20100;-82
2023/04/26 09:10:21;;;;;;;4.12;1.45;;;;;;;14.44;35.41;97872.63;4456578;32;20081;-83
2023/04/26 09:12:52;;;;;;;4.65;1.83;;;;;;;13.43;36.78;97862.22;4457120;32;20549;-84
2023/04/26 09:15:23;;;;;;;4.57;1.92;;;;;;;14.00;35.64;97873.53;4456455;32;20160;-84
2023/04/26 09:17:50;;;;;;;8.05;2.12;;;;;;;14.91;35.24;97871.50;4456875;32;20116;-84
2023/04/26 09:20:29;;;;;;;3.92;1.75;;;;;;;16.42;30.69;97890.97;4456730;32;20089;-85
2023/04/26 09:23:05;;;;;;;3.87;1.60;;;;;;;16.94;32.14;97894.34;4457200;32;20089;-85
2023/04/26 09:25:32;;;;;;;5.15;1.70;;;;;;;16.18;30.30;97872.66;4456861;32;20101;-86
2023/04/26 09:28:00;;;;;;;4.35;1.70;;;;;;;16.31;31.40;97892.63;4443017;32;20170;-85
2023/04/26 09:30:27;;;;;;;8.07;2.10;;;;;;;15.37;32.98;97892.78;4442362;32;20093;-85
2023/04/26 09:32:57;;;;;;;6.28;2.00;;;;;;;16.81;32.80;97872.69;4456567;32;20088;-86
2023/04/26 09:35:28;;;;;;;8.10;2.10;;;;;;;16.93;30.94;97887.47;4456788;32;20145;-85
2023/04/26 09:38:03;;;;;;;10.77;2.00;;;;;;;17.07;29.17;97887.31;4456964;32;20102;-85
2023/04/26 09:40:40;;;;;;;6.65;2.08;;;;;;;17.75;29.92;97880.63;4456776;32;20148;-84
2023/04/26 09:43:11;;;;;;;8.18;1.92;;;;;;;16.81;29.95;97873.53;4456622;32;20154;-84
2023/04/26 09:45:45;;;;;;;4.93;2.03;;;;;;;16.80;30.78;97879.69;4456474;32;20096;-84
2023/04/26 09:48:16;;;;;;;7.62;2.05;;;;;;;15.44;32.03;97878.44;4442556;32;20097;-84
2023/04/26 09:50:46;;;;;;;6.75;2.37;;;;;;;14.53;33.45;97872.09;4442382;32;20142;-85
2023/04/26 09:53:29;;;;;;;5.30;1.90;;;;;;;13.65;36.43;97861.81;4457136;32;20065;-86
2023/04/26 09:56:14;;;;;;;6.03;1.92;;;;;;;13.90;35.62;97872.41;4457157;32;20111;-85
2023/04/26 09:58:50;;;;;;;7.93;2.30;;;;;;;13.20;35.71;97861.75;4456327;32;20120;-84
2023/04/26 10:01:18;;;;;;;5.90;2.10;;;;;;;13.73;35.83;97859.63;4456566;32;20085;-85
2023/04/26 10:03:46;;;;;;;6.72;2.08;;;;;;;13.12;37.97;97858.72;4456400;32;20116;-84
2023/04/26 10:06:13;;;;;;;4.97;2.03;;;;;;;13.06;38.43;97866.00;4456229;32;20112;-85
2023/04/26 10:08:40;;;;;;;5.87;2.00;;;;;;;14.55;36.88;97857.25;4456247;32;20093;-84
2023/04/26 10:11:11;;;;;;;8.73;2.28;;;;;;;14.43;34.11;97848.44;4456661;32;20145;-85
2023/04/26 10:13:40;;;;;;;6.30;1.67;;;;;;;14.00;36.14;97860.56;4456301;32;20431;-84
2023/04/26 10:16:08;;;;;;;7.15;2.03;;;;;;;14.24;34.65;97853.06;4442523;32;20117;-83
2023/04/26 10:18:36;;;;;;;5.87;2.12;;;;;;;14.72;35.20;97864.84;4456102;32;20947;-83
2023/04/26 10:21:19;;;;;;;8.40;2.80;;;;;;;14.99;33.70;97861.44;4456572;32;20093;-83
2023/04/26 10:23:48;;;;;;;5.90;2.00;;;;;;;15.50;33.00;97848.59;4442521;32;20103;-83
2023/04/26 10:26:48;;;;;;;5.85;1.70;;;;;;;16.06;32.83;97855.28;4456110;32;20086;-83
2023/04/26 10:29:15;;;;;;;6.65;2.03;;;;;;;16.99;32.43;97863.56;4456224;32;20161;-83
2023/04/26 10:32:00;;;;;;;7.47;1.95;;;;;;;16.65;31.42;97850.28;4456520;32;20081;-83
2023/04/26 10:34:32;;;;;;;5.20;1.80;;;;;;;16.83;30.89;97861.22;4456044;32;20108;-84
2023/04/26 10:37:09;;;;;;;7.47;1.92;;;;;;;16.75;31.18;97861.75;4456451;32;20093;-84
2023/04/26 10:39:36;;;;;;;5.72;1.80;;;;;;;15.03;33.01;97860.31;4455953;32;20097;-83
2023/04/26 10:42:35;;;;;;;6.22;1.80;;;;;;;14.92;33.95;97870.56;4456264;32;20084;-83
2023/04/26 10:45:24;;;;;;;6.62;2.12;;;;;;;16.27;31.75;97865.13;4435443;32;20077;-85
2023/04/26 10:48:26;;;;;;;6.93;1.75;;;;;;;16.05;30.91;97844.94;4464087;32;20066;-85
2023/04/26 10:51:10;;;;;;;7.00;2.20;;;;;;;14.74;33.62;97862.16;4458562;32;20053;-86
2023/04/26 10:53:43;;;;;;;7.85;2.12;;;;;;;14.04;34.64;97877.62;4457997;32;20145;-85
2023/04/26 10:56:40;;;;;;;5.75;2.08;;;;;;;14.15;33.57;97871.81;4442808;32;20154;-86
2023/04/26 10:59:10;;;;;;;6.93;2.08;;;;;;;14.35;34.29;97863.62;4437578;32;20698;-85
2023/04/26 11:01:40;;;;;;;4.35;1.60;;;;;;;14.71;33.07;97864.94;4455924;32;20464;-85
2023/04/26 11:04:09;;;;;;;11.05;2.10;;;;;;;15.30;34.41;97865.50;4425242;32;20587;-84
2023/04/26 11:07:06;;;;;;;7.43;2.00;;;;;;;16.35;31.68;97868.03;4425235;32;20554;-84
2023/04/26 11:09:41;;;;;;;4.93;1.73;;;;;;;15.76;31.56;97852.13;4414948;32;20133;-83
2023/04/26 11:12:12;;;;;;;5.07;1.90;;;;;;;16.03;31.78;97857.22;4424062;32;20109;-84
2023/04/26 11:14:44;;;;;;;5.65;1.90;;;;;;;15.80;31.44;97857.00;4424836;32;20098;-85
2023/04/26 11:17:12;;;;;;;5.93;2.15;;;;;;;15.81;31.18;97858.66;4425160;32;20153;-84
2023/04/26 11:19:40;;;;;;;5.30;2.00;;;;;;;15.38;32.09;97852.00;4424074;32;20164;-83
2023/04/26 11:22:07;;;;;;;7.10;1.95;;;;;;;15.43;32.36;97847.34;4424719;32;20178;-84
2023/04/26 11:24:43;;;;;;;6.03;1.80;;;;;;;15.36;33.11;97848.69;4425197;32;20089;-84
2023/04/26 11:27:11;;;;;;;5.10;1.87;;;;;;;13.42;35.10;97847.59;4425195;32;20073;-85
2023/04/26 11:29:38;;;;;;;6.80;1.87;;;;;;;13.69;35.07;97858.09;4424661;32;20491;-84
2023/04/26 11:32:05;;;;;;;4.93;1.80;;;;;;;14.37;33.23;97868.75;4425210;32;20399;-84
2023/04/26 11:34:34;;;;;;;6.80;1.73;;;;;;;15.14;32.88;97870.84;4425049;32;20139;-84
2023/04/26 11:37:03;;;;;;;5.72;1.62;;;;;;;15.26;32.55;97877.88;4424693;32;20124;-84
2023/04/26 11:39:34;;;;;;;5.05;1.80;;;;;;;13.65;33.49;97869.59;4424732;32;20353;-83
2023/04/26 11:42:08;;;;;;;5.18;2.00;;;;;;;13.96;33.66;97877.25;4425016;32;20565;-83
2023/04/26 11:44:36;;;;;;;6.30;2.10;;;;;;;15.56;32.52;97861.22;4424555;32;20086;-83